createdAt,value
2023-01-21T00:01:16.929Z,45.25
2023-01-21T00:03:46.801Z,47.13
2023-01-21T00:06:15.953Z,48.85
2023-01-21T00:08:44.341Z,46.70
2023-01-21T00:11:15.423Z,50.30
2023-01-21T00:13:44.356Z,47.53
2023-01-21T00:16:13.461Z,48.90
2023-01-21T00:18:42.153Z,48.47
2023-01-21T00:21:11.760Z,45.90
2023-01-21T00:23:39.675Z,43.85
2023-01-21T00:26:11.081Z,49.35
2023-01-21T00:28:39.894Z,43.83
2023-01-21T00:31:09.051Z,46.30
2023-01-21T00:33:37.172Z,46.97
2023-01-21T00:36:07.164Z,48.08
2023-01-21T00:38:37.376Z,44.95
2023-01-21T00:41:07.853Z,46.67
2023-01-21T00:43:36.854Z,48.50
2023-01-21T00:46:05.118Z,43.80
2023-01-21T00:48:33.573Z,45.42
2023-01-21T00:51:01.801Z,41.13
2023-01-21T00:53:31.714Z,39.67
2023-01-21T00:56:02.130Z,38.17
2023-01-21T00:58:30.884Z,44.58
2023-01-21T01:01:02.989Z,41.22
2023-01-21T01:03:31.515Z,43.17
2023-01-21T01:06:04.259Z,43.85
2023-01-21T01:08:33.125Z,46.55
2023-01-21T01:11:03.791Z,45.50
2023-01-21T01:13:32.653Z,42.67
2023-01-21T01:16:01.766Z,38.75
2023-01-21T01:18:31.242Z,41.90
2023-01-21T01:20:59.621Z,44.10
2023-01-21T01:23:27.786Z,45.55
2023-01-21T01:25:57.239Z,39.88
2023-01-21T01:28:27.079Z,38.03
2023-01-21T01:30:55.518Z,44.88
2023-01-21T01:33:24.255Z,38.53
2023-01-21T01:35:52.542Z,40.08
2023-01-21T01:38:22.939Z,44.40
2023-01-21T01:40:53.194Z,37.28
2023-01-21T01:43:23.729Z,37.13
2023-01-21T01:45:53.967Z,37.33
2023-01-21T01:48:25.690Z,42.28
2023-01-21T01:50:54.727Z,36.10
2023-01-21T01:53:22.806Z,36.55
2023-01-21T01:55:51.179Z,35.90
2023-01-21T01:58:21.864Z,35.22
2023-01-21T02:00:50.039Z,32.35
2023-01-21T02:03:37.271Z,40.60
2023-01-21T02:06:05.602Z,35.00
2023-01-21T02:08:36.269Z,42.15
2023-01-21T02:11:11.907Z,39.83
2023-01-21T02:13:41.066Z,43.38
2023-01-21T02:16:41.683Z,41.08
2023-01-21T02:19:45.230Z,43.35
2023-01-21T02:22:23.987Z,41.97
2023-01-21T02:25:27.477Z,41.78
2023-01-21T02:28:23.150Z,44.50
2023-01-21T02:31:32.914Z,50.80
2023-01-21T02:34:12.696Z,50.33
2023-01-21T02:36:51.570Z,48.97
2023-01-21T02:39:29.139Z,46.33
2023-01-21T02:42:07.006Z,42.25
2023-01-21T02:44:41.787Z,38.85
2023-01-21T02:47:20.129Z,38.92
2023-01-21T02:49:55.727Z,40.92
2023-01-21T02:52:25.521Z,40.15
2023-01-21T02:54:58.859Z,38.72
2023-01-21T02:57:45.476Z,43.75
2023-01-21T03:00:19.720Z,35.70
2023-01-21T03:03:12.858Z,45.20
2023-01-21T03:05:57.690Z,39.45
2023-01-21T03:08:33.409Z,39.15
2023-01-21T03:11:10.193Z,39.60
2023-01-21T03:14:00.768Z,41.20
2023-01-21T03:16:51.961Z,42.20
2023-01-21T03:19:22.507Z,42.15
2023-01-21T03:21:52.436Z,45.15
2023-01-21T03:24:21.616Z,41.75
2023-01-21T03:26:53.681Z,37.03
2023-01-21T03:29:25.122Z,46.22
2023-01-21T03:31:57.724Z,40.53
2023-01-21T03:34:29.011Z,40.10
2023-01-21T03:37:02.098Z,44.73
2023-01-21T03:39:34.891Z,42.72
2023-01-21T03:42:03.686Z,39.58
2023-01-21T03:44:31.774Z,43.47
2023-01-21T03:47:05.636Z,46.58
2023-01-21T03:49:35.690Z,44.05
2023-01-21T03:52:06.775Z,40.72
2023-01-21T03:54:34.742Z,42.35
2023-01-21T03:57:02.661Z,46.55
2023-01-21T03:59:30.628Z,50.63
2023-01-21T04:01:58.653Z,48.90
2023-01-21T04:04:26.646Z,46.72
2023-01-21T04:06:54.729Z,45.15
2023-01-21T04:09:24.389Z,45.28
2023-01-21T04:11:52.513Z,43.90
2023-01-21T04:14:20.703Z,43.00
2023-01-21T04:16:48.703Z,44.35
2023-01-21T04:19:16.923Z,42.45
2023-01-21T04:21:45.210Z,45.20
2023-01-21T04:24:13.356Z,50.15
2023-01-21T04:26:43.121Z,40.13
2023-01-21T04:29:11.280Z,49.03
2023-01-21T04:31:39.630Z,40.17
2023-01-21T04:34:07.936Z,51.40
2023-01-21T04:36:36.168Z,49.50
2023-01-21T04:39:04.468Z,38.95
2023-01-21T04:41:32.676Z,51.03
2023-01-21T04:44:02.079Z,47.25
2023-01-21T04:46:30.270Z,42.78
2023-01-21T04:48:58.343Z,49.10
2023-01-21T04:51:26.547Z,44.55
2023-01-21T04:53:54.805Z,46.45
2023-01-21T04:56:23.005Z,47.35
2023-01-21T04:58:51.144Z,47.10
2023-01-21T05:01:20.733Z,43.20
2023-01-21T05:03:48.962Z,48.63
2023-01-21T05:06:16.985Z,41.53
2023-01-21T05:08:45.173Z,50.33
2023-01-21T05:11:16.480Z,42.58
2023-01-21T05:13:44.553Z,45.55
2023-01-21T05:16:14.375Z,50.85
2023-01-21T05:18:46.684Z,46.95
2023-01-21T05:21:17.227Z,49.83
2023-01-21T05:23:45.594Z,48.88
2023-01-21T05:26:13.687Z,44.90
2023-01-21T05:28:41.815Z,47.40
2023-01-21T05:31:10.077Z,48.72
2023-01-21T05:33:38.522Z,48.83
2023-01-21T05:36:09.076Z,46.72
2023-01-21T05:38:37.365Z,48.40
2023-01-21T05:41:05.875Z,47.80
2023-01-21T05:43:34.130Z,45.25
2023-01-21T05:46:02.630Z,50.92
2023-01-21T05:48:30.972Z,54.28
2023-01-21T05:50:59.477Z,53.97
2023-01-21T05:53:30.628Z,47.65
2023-01-21T05:55:58.974Z,53.17
2023-01-21T05:58:27.356Z,49.70
2023-01-21T06:00:57.704Z,51.45
2023-01-21T06:03:26.631Z,44.78
2023-01-21T06:05:54.824Z,55.53
2023-01-21T06:08:23.373Z,50.60
2023-01-21T06:10:56.467Z,45.45
2023-01-21T06:13:25.466Z,50.10
2023-01-21T06:15:56.541Z,48.92
2023-01-21T06:18:25.717Z,52.25
2023-01-21T06:20:54.190Z,56.13
2023-01-21T06:23:22.223Z,52.63
2023-01-21T06:25:50.482Z,48.60
2023-01-21T06:28:20.126Z,44.40
2023-01-21T06:30:48.681Z,49.38
2023-01-21T06:33:17.163Z,49.72
2023-01-21T06:35:45.318Z,52.08
2023-01-21T06:38:13.309Z,47.80
2023-01-21T06:40:41.523Z,53.25
2023-01-21T06:43:09.680Z,46.78
2023-01-21T06:45:40.988Z,48.65
2023-01-21T06:48:09.039Z,48.08
2023-01-21T06:50:37.066Z,50.40
2023-01-21T06:53:04.989Z,45.28
2023-01-21T06:55:32.997Z,50.65
2023-01-21T06:58:00.930Z,47.33
2023-01-21T07:00:28.890Z,52.63
2023-01-21T07:02:59.561Z,51.53
2023-01-21T07:05:28.585Z,48.10
2023-01-21T07:07:57.172Z,46.97
2023-01-21T07:10:25.711Z,49.92
2023-01-21T07:12:53.724Z,44.17
2023-01-21T07:15:21.926Z,57.25
2023-01-21T07:17:49.878Z,51.92
2023-01-21T07:20:19.519Z,54.42
2023-01-21T07:22:47.475Z,51.63
2023-01-21T07:25:15.907Z,53.38
2023-01-21T07:27:44.209Z,49.95
2023-01-21T07:30:17.651Z,55.65
2023-01-21T07:32:45.831Z,46.33
2023-01-21T07:35:14.195Z,48.00
2023-01-21T07:37:43.839Z,60.35
2023-01-21T07:40:12.835Z,52.08
2023-01-21T07:42:40.792Z,56.28
2023-01-21T07:45:09.454Z,57.00
2023-01-21T07:47:37.421Z,58.45
2023-01-21T07:50:08.501Z,62.40
2023-01-21T07:52:36.604Z,62.10
2023-01-21T07:55:08.001Z,65.82
2023-01-21T07:57:36.240Z,50.55
2023-01-21T08:00:04.791Z,70.20
2023-01-21T08:02:32.886Z,61.83
2023-01-21T08:05:01.015Z,62.00
2023-01-21T08:07:29.115Z,54.78
2023-01-21T08:09:57.131Z,61.88
2023-01-21T08:12:27.415Z,62.28
2023-01-21T08:14:55.515Z,56.17
2023-01-21T08:17:23.560Z,62.88
2023-01-21T08:19:51.509Z,51.83
2023-01-21T08:22:19.582Z,62.70
2023-01-21T08:24:47.969Z,57.60
2023-01-21T08:27:16.022Z,61.05
2023-01-21T08:29:46.791Z,58.20
2023-01-21T08:32:14.856Z,61.30
2023-01-21T08:34:42.899Z,56.30
2023-01-21T08:37:11.262Z,61.88
2023-01-21T08:39:39.215Z,53.38
2023-01-21T08:42:07.274Z,72.20
2023-01-21T08:44:35.564Z,64.18
2023-01-21T08:47:05.135Z,59.95
2023-01-21T08:49:33.093Z,61.08
2023-01-21T08:52:01.030Z,46.50
2023-01-21T08:54:29.191Z,52.33
2023-01-21T08:56:57.257Z,47.55
2023-01-21T08:59:28.619Z,46.40
2023-01-21T09:01:57.039Z,46.97
2023-01-21T09:04:26.529Z,43.63
2023-01-21T09:06:54.506Z,49.05
2023-01-21T09:09:22.518Z,44.97
2023-01-21T09:11:52.350Z,45.67
2023-01-21T09:14:20.566Z,45.90
2023-01-21T09:16:50.141Z,44.95
2023-01-21T09:19:18.232Z,47.72
2023-01-21T09:21:47.586Z,44.45
2023-01-21T09:24:15.536Z,41.17
2023-01-21T09:26:44.215Z,37.97
2023-01-21T09:29:12.231Z,38.28
2023-01-21T09:31:40.191Z,42.30
2023-01-21T09:34:10.614Z,42.88
2023-01-21T09:36:39.418Z,39.40
2023-01-21T09:39:09.096Z,53.13
2023-01-21T09:41:38.648Z,55.28
2023-01-21T09:44:17.307Z,45.00
2023-01-21T09:46:50.235Z,48.30
2023-01-21T09:49:23.547Z,51.90
2023-01-21T09:51:55.203Z,36.58
2023-01-21T09:54:28.801Z,48.00
2023-01-21T09:57:28.811Z,41.85
2023-01-21T10:00:15.925Z,38.90
2023-01-21T10:02:50.490Z,42.40
2023-01-21T10:05:45.199Z,48.28
2023-01-21T10:08:21.790Z,47.40
2023-01-21T10:10:53.748Z,45.28
2023-01-21T10:13:39.047Z,40.38
2023-01-21T10:16:14.800Z,41.30
2023-01-21T10:18:46.622Z,53.63
2023-01-21T10:21:24.502Z,51.35
2023-01-21T10:23:57.461Z,39.70
2023-01-21T10:26:29.099Z,43.42
2023-01-21T10:28:57.299Z,51.95
2023-01-21T10:31:27.362Z,45.67
2023-01-21T10:33:55.953Z,46.03
2023-01-21T10:36:44.042Z,56.65
2023-01-21T10:39:24.558Z,54.00
2023-01-21T10:42:10.819Z,45.35
2023-01-21T10:44:46.699Z,49.47
2023-01-21T10:47:24.154Z,48.38
2023-01-21T10:50:00.297Z,46.60
2023-01-21T10:52:36.855Z,43.25
2023-01-21T10:55:15.582Z,45.85
2023-01-21T10:57:55.979Z,40.85
2023-01-21T11:00:26.778Z,42.05
2023-01-21T11:02:58.231Z,50.47
2023-01-21T11:05:27.335Z,39.97
2023-01-21T11:07:56.257Z,45.60
2023-01-21T11:10:26.282Z,43.05
2023-01-21T11:12:56.913Z,38.85
2023-01-21T11:15:25.387Z,44.00
2023-01-21T11:17:56.417Z,45.33
2023-01-21T11:20:30.434Z,43.08
2023-01-21T11:22:58.418Z,38.72
2023-01-21T11:25:32.107Z,46.67
2023-01-21T11:28:01.442Z,33.70
2023-01-21T11:30:49.004Z,38.25
2023-01-21T11:33:27.300Z,35.15
2023-01-21T11:35:56.515Z,36.83
2023-01-21T11:38:31.810Z,37.97
2023-01-21T11:41:15.313Z,39.83
2023-01-21T11:43:46.116Z,41.45
2023-01-21T11:46:28.898Z,39.75
2023-01-21T11:48:58.492Z,38.03
2023-01-21T11:51:26.405Z,46.30
2023-01-21T11:54:12.755Z,41.97
2023-01-21T11:56:43.221Z,38.15
2023-01-21T11:59:22.341Z,46.90
2023-01-21T12:01:54.787Z,46.42
2023-01-21T12:06:54.908Z,33.47
2023-01-21T12:09:23.202Z,37.45
2023-01-21T12:12:12.135Z,36.67
2023-01-21T12:14:51.151Z,37.40
2023-01-21T12:17:32.382Z,51.13
2023-01-21T12:20:36.636Z,38.92
2023-01-21T12:23:25.717Z,34.90
2023-01-21T12:25:59.595Z,35.42
2023-01-21T12:28:43.758Z,36.45
2023-01-21T12:31:25.067Z,40.70
2023-01-21T12:33:58.391Z,42.05
2023-01-21T12:36:31.637Z,40.10
2023-01-21T12:39:17.804Z,35.22
2023-01-21T12:41:52.375Z,42.28
2023-01-21T12:44:31.666Z,37.95
2023-01-21T12:47:07.881Z,32.88
2023-01-21T12:50:04.291Z,59.67
2023-01-21T12:52:40.598Z,34.00
2023-01-21T12:55:19.807Z,44.17
2023-01-21T12:57:54.282Z,42.03
2023-01-21T13:00:25.502Z,40.92
2023-01-21T13:03:05.591Z,43.20
2023-01-21T13:05:40.809Z,47.10
2023-01-21T13:08:27.322Z,38.33
2023-01-21T13:11:00.744Z,40.55
2023-01-21T13:13:33.117Z,37.83
2023-01-21T13:18:35.499Z,42.83
2023-01-21T13:21:10.995Z,37.53
2023-01-21T13:23:46.226Z,40.55
2023-01-21T13:26:19.907Z,39.88
2023-01-21T13:28:53.943Z,38.47
2023-01-21T13:31:29.173Z,47.38
2023-01-21T13:34:06.818Z,35.08
2023-01-21T13:36:50.585Z,40.85
2023-01-21T13:39:24.939Z,38.30
2023-01-21T13:42:09.294Z,40.72
2023-01-21T13:45:01.561Z,35.28
2023-01-21T13:48:00.139Z,34.58
2023-01-21T13:50:46.349Z,31.48
2023-01-21T13:53:47.834Z,37.42
2023-01-21T13:56:32.704Z,40.08
2023-01-21T13:59:08.687Z,33.53
2023-01-21T14:01:44.903Z,40.75
2023-01-21T14:04:18.104Z,35.05
2023-01-21T14:06:54.143Z,35.03
2023-01-21T14:09:28.635Z,27.63
2023-01-21T14:12:02.882Z,27.13
2023-01-21T14:15:04.621Z,31.27
2023-01-21T14:18:03.154Z,39.47
2023-01-21T14:20:47.914Z,31.90
2023-01-21T14:23:40.856Z,27.52
2023-01-21T14:26:20.912Z,33.63
2023-01-21T14:28:57.603Z,29.45
2023-01-21T14:31:32.315Z,34.42
2023-01-21T14:34:06.321Z,36.33
2023-01-21T14:36:40.610Z,28.52
2023-01-21T14:39:32.824Z,31.73
2023-01-21T14:42:10.678Z,22.85
2023-01-21T14:44:41.970Z,31.67
2023-01-21T14:47:22.926Z,33.55
2023-01-21T14:49:52.895Z,28.02
2023-01-21T14:52:22.639Z,30.95
2023-01-21T14:54:52.032Z,36.85
2023-01-21T14:57:29.662Z,35.92
2023-01-21T15:00:12.161Z,37.45
2023-01-21T15:05:24.076Z,32.38
2023-01-21T15:08:04.867Z,27.02
2023-01-21T15:10:37.346Z,28.20
2023-01-21T15:13:08.788Z,34.90
2023-01-21T15:15:42.368Z,35.17
2023-01-21T15:18:35.113Z,33.40
2023-01-21T15:21:36.453Z,23.80
2023-01-21T15:24:25.731Z,31.55
2023-01-21T15:27:19.340Z,28.25
2023-01-21T15:30:08.224Z,22.92
2023-01-21T15:32:37.879Z,31.73
2023-01-21T15:35:16.765Z,25.75
2023-01-21T15:37:47.539Z,28.90
2023-01-21T15:40:20.102Z,26.05
2023-01-21T15:42:56.231Z,24.35
2023-01-21T15:45:31.224Z,21.33
2023-01-21T15:48:13.294Z,22.77
2023-01-21T15:50:46.753Z,32.38
2023-01-21T15:53:31.502Z,27.80
2023-01-21T15:56:23.641Z,32.08
2023-01-21T15:59:01.754Z,28.88
2023-01-21T16:01:35.052Z,22.52
2023-01-21T16:04:13.528Z,23.58
2023-01-21T16:06:51.656Z,24.50
2023-01-21T16:09:29.907Z,22.55
2023-01-21T16:12:09.781Z,24.20
2023-01-21T16:14:52.893Z,22.65
2023-01-21T16:17:24.247Z,19.77
2023-01-21T16:19:54.999Z,27.10
2023-01-21T16:22:26.879Z,21.40
2023-01-21T16:25:00.107Z,19.77
2023-01-21T16:27:30.980Z,23.00
2023-01-21T16:30:01.860Z,24.98
2023-01-21T16:32:32.341Z,28.48
2023-01-21T16:35:00.942Z,20.55
2023-01-21T16:37:30.541Z,19.27
2023-01-21T16:40:27.937Z,21.63
2023-01-21T16:43:11.528Z,23.52
2023-01-21T16:45:41.233Z,22.80
2023-01-21T16:48:21.393Z,11.98
2023-01-21T16:50:49.540Z,19.42
2023-01-21T16:53:19.075Z,20.65
2023-01-21T16:55:48.462Z,16.42
2023-01-21T16:58:27.683Z,25.27
2023-01-21T17:01:05.967Z,13.43
2023-01-21T17:03:34.926Z,19.30
2023-01-21T17:06:09.739Z,16.23
2023-01-21T17:08:38.390Z,20.10
2023-01-21T17:11:10.387Z,14.27
2023-01-21T17:13:42.031Z,17.35
2023-01-21T17:16:22.244Z,17.33
2023-01-21T17:18:52.802Z,18.00
2023-01-21T17:21:23.715Z,19.17
2023-01-21T17:23:53.876Z,17.45
2023-01-21T17:26:24.846Z,19.33
2023-01-21T17:28:57.350Z,17.02
2023-01-21T17:31:30.773Z,21.88
2023-01-21T17:34:04.061Z,16.98
2023-01-21T17:36:33.729Z,17.25
2023-01-21T17:39:01.875Z,21.25
2023-01-21T17:41:33.646Z,23.73
2023-01-21T17:44:04.210Z,19.77
2023-01-21T17:46:34.241Z,19.05
2023-01-21T17:49:08.214Z,22.55
2023-01-21T17:51:36.627Z,20.58
2023-01-21T17:54:06.389Z,18.83
2023-01-21T17:56:39.952Z,16.40
2023-01-21T17:59:31.477Z,21.10
2023-01-21T18:02:01.030Z,20.33
2023-01-21T18:04:29.511Z,21.70
2023-01-21T18:06:58.466Z,24.90
2023-01-21T18:09:28.257Z,27.77
2023-01-21T18:11:58.362Z,21.77
2023-01-21T18:14:28.771Z,19.45
2023-01-21T18:16:56.839Z,21.27
2023-01-21T18:19:32.096Z,16.50
2023-01-21T18:22:00.647Z,18.40
2023-01-21T18:24:28.628Z,18.70
2023-01-21T18:26:58.054Z,22.40
2023-01-21T18:29:30.214Z,21.35
2023-01-21T18:31:58.401Z,18.42
2023-01-21T18:34:26.689Z,18.38
2023-01-21T18:36:57.693Z,19.25
2023-01-21T18:39:25.906Z,20.33
2023-01-21T18:41:53.960Z,22.42
2023-01-21T18:44:21.883Z,21.40
2023-01-21T18:46:49.939Z,21.85
2023-01-21T18:49:20.241Z,18.00
2023-01-21T18:51:48.615Z,26.30
2023-01-21T18:54:18.989Z,24.60
2023-01-21T18:56:47.759Z,23.02
2023-01-21T18:59:17.182Z,22.77
2023-01-21T19:01:45.792Z,19.73
2023-01-21T19:04:18.018Z,23.63
2023-01-21T19:06:46.894Z,27.10
2023-01-21T19:09:21.184Z,26.45
2023-01-21T19:11:49.338Z,21.52
2023-01-21T19:14:17.434Z,24.25
2023-01-21T19:16:46.653Z,22.30
2023-01-21T19:19:16.763Z,19.83
2023-01-21T19:21:44.847Z,25.20
2023-01-21T19:24:12.898Z,21.08
2023-01-21T19:26:42.298Z,24.17
2023-01-21T19:29:16.159Z,27.70
2023-01-21T19:31:44.265Z,24.95
2023-01-21T19:34:12.578Z,22.23
2023-01-21T19:36:41.061Z,23.83
2023-01-21T19:39:16.813Z,23.00
2023-01-21T19:41:46.270Z,24.85
2023-01-21T19:44:14.463Z,22.60
2023-01-21T19:46:42.611Z,18.42
2023-01-21T19:49:15.647Z,25.63
2023-01-21T19:51:44.427Z,28.92
2023-01-21T19:54:12.495Z,26.42
2023-01-21T19:56:40.777Z,23.13
2023-01-21T19:59:13.052Z,21.77
2023-01-21T20:04:10.693Z,23.65
2023-01-21T20:06:40.358Z,24.88
2023-01-21T20:09:11.424Z,25.30
2023-01-21T20:11:39.387Z,25.90
2023-01-21T20:14:07.346Z,36.40
2023-01-21T20:16:44.678Z,44.13
2023-01-21T20:19:16.931Z,32.08
2023-01-21T20:21:55.045Z,29.75
2023-01-21T20:24:30.089Z,26.60
2023-01-21T20:26:58.510Z,37.53
2023-01-21T20:29:27.468Z,27.55
2023-01-21T20:31:57.130Z,25.73
2023-01-21T20:34:27.571Z,22.83
2023-01-21T20:36:56.533Z,26.33
2023-01-21T20:39:24.489Z,24.20
2023-01-21T20:41:52.502Z,20.52
2023-01-21T20:44:20.584Z,24.10
2023-01-21T20:46:48.696Z,22.90
2023-01-21T20:49:18.062Z,23.38
2023-01-21T20:51:46.129Z,24.20
2023-01-21T20:54:14.337Z,20.48
2023-01-21T20:56:42.300Z,23.02
2023-01-21T20:59:10.626Z,22.75
2023-01-21T21:01:39.437Z,22.98
2023-01-21T21:04:07.357Z,27.23
2023-01-21T21:06:36.659Z,25.33
2023-01-21T21:09:05.493Z,27.20
2023-01-21T21:11:33.471Z,21.25
2023-01-21T21:14:01.941Z,22.45
2023-01-21T21:16:32.049Z,26.92
2023-01-21T21:19:00.652Z,25.70
2023-01-21T21:21:29.153Z,25.15
2023-01-21T21:23:58.543Z,28.13
2023-01-21T21:26:29.086Z,25.20
2023-01-21T21:28:58.632Z,22.67
2023-01-21T21:31:31.747Z,22.13
2023-01-21T21:33:59.886Z,22.63
2023-01-21T21:36:27.867Z,20.55
2023-01-21T21:38:56.321Z,23.98
2023-01-21T21:41:44.291Z,21.25
2023-01-21T21:44:13.057Z,22.65
2023-01-21T21:46:58.755Z,23.05
2023-01-21T21:49:27.266Z,21.17
2023-01-21T21:51:55.483Z,23.88
2023-01-21T21:54:23.628Z,22.17
2023-01-21T21:56:52.994Z,22.25
2023-01-21T21:59:21.060Z,22.27
2023-01-21T22:01:49.202Z,24.38
2023-01-21T22:04:17.436Z,25.02
2023-01-21T22:06:45.652Z,22.50
2023-01-21T22:09:14.637Z,23.85
2023-01-21T22:11:42.637Z,18.67
2023-01-21T22:14:11.999Z,19.13
2023-01-21T22:16:40.229Z,23.20
2023-01-21T22:19:08.520Z,22.05
2023-01-21T22:21:36.496Z,19.58
2023-01-21T22:24:06.736Z,18.58
2023-01-21T22:26:35.752Z,19.92
2023-01-21T22:29:04.358Z,23.58
2023-01-21T22:31:34.839Z,18.58
2023-01-21T22:34:02.928Z,18.40
2023-01-21T22:36:31.972Z,16.38
2023-01-21T22:39:00.364Z,15.93
2023-01-21T22:41:28.640Z,17.15
2023-01-21T22:43:56.726Z,18.88
2023-01-21T22:46:26.353Z,20.17
2023-01-21T22:48:55.921Z,21.30
2023-01-21T22:51:24.200Z,18.80
2023-01-21T22:53:53.082Z,21.35
2023-01-21T22:56:31.483Z,21.00
2023-01-21T22:59:08.078Z,19.15
2023-01-21T23:01:36.464Z,20.23
2023-01-21T23:04:06.102Z,17.98
2023-01-21T23:06:36.699Z,21.02
2023-01-21T23:09:05.752Z,21.63
2023-01-21T23:11:36.304Z,19.63
2023-01-21T23:14:04.342Z,19.23
2023-01-21T23:16:32.319Z,20.42
2023-01-21T23:19:00.385Z,21.67
2023-01-21T23:21:29.775Z,19.60
2023-01-21T23:23:57.826Z,20.48
2023-01-21T23:26:25.857Z,15.65
2023-01-21T23:28:55.733Z,22.23
2023-01-21T23:31:24.755Z,20.88
2023-01-21T23:33:53.791Z,21.25
2023-01-21T23:36:22.038Z,18.63
2023-01-21T23:38:51.560Z,22.48
2023-01-21T23:41:21.019Z,22.83
2023-01-21T23:43:49.015Z,22.02
2023-01-21T23:46:19.413Z,21.05
2023-01-21T23:48:47.934Z,16.23
2023-01-21T23:51:17.454Z,19.17
2023-01-21T23:53:45.859Z,17.55
2023-01-21T23:56:16.977Z,20.70
2023-01-21T23:58:45.133Z,19.38
